createdAt,value
2023-01-21T00:01:41.720Z,-0.33
2023-01-21T00:06:46.023Z,-0.34
2023-01-21T00:11:48.999Z,-0.35
2023-01-21T00:16:51.851Z,-0.35
2023-01-21T00:21:54.852Z,-0.36
2023-01-21T00:26:57.755Z,-0.35
2023-01-21T00:32:00.855Z,-0.37
2023-01-21T00:37:03.747Z,-0.40
2023-01-21T00:42:08.410Z,-0.35
2023-01-21T00:47:11.388Z,-0.35
2023-01-21T00:52:14.140Z,-0.34
2023-01-21T00:57:17.155Z,-0.35
2023-01-21T01:02:20.491Z,-0.33
2023-01-21T01:07:23.665Z,-0.34
2023-01-21T01:12:28.213Z,-0.33
2023-01-21T01:17:31.158Z,-0.34
2023-01-21T01:22:33.977Z,-0.34
2023-01-21T01:27:36.985Z,-0.34
2023-01-21T01:32:39.964Z,-0.36
2023-01-21T01:37:42.940Z,-0.33
2023-01-21T01:42:46.104Z,-0.30
2023-01-21T01:47:59.944Z,-0.28
2023-01-21T01:53:03.658Z,-0.29
2023-01-21T01:58:13.325Z,-0.29
2023-01-21T02:03:36.783Z,-0.26
2023-01-21T02:08:41.363Z,-0.23
2023-01-21T02:13:57.898Z,-0.27
2023-01-21T02:19:28.417Z,-0.20
2023-01-21T02:24:49.928Z,-0.18
2023-01-21T02:30:11.681Z,-0.17
2023-01-21T02:35:34.484Z,-0.15
2023-01-21T02:40:58.549Z,-0.13
2023-01-21T02:46:24.584Z,-0.13
2023-01-21T02:51:27.741Z,-0.12
2023-01-21T02:56:30.762Z,-0.12
2023-01-21T03:02:03.120Z,-0.09
2023-01-21T03:07:38.457Z,-0.07
2023-01-21T03:13:02.064Z,-0.07
2023-01-21T03:18:13.030Z,-0.05
2023-01-21T03:23:22.796Z,-0.06
2023-01-21T03:28:30.809Z,-0.05
2023-01-21T03:33:39.437Z,-0.05
2023-01-21T03:38:50.052Z,-0.04
2023-01-21T03:43:53.156Z,0.00
2023-01-21T03:49:08.987Z,0.02
2023-01-21T03:54:12.043Z,0.03
2023-01-21T03:59:14.876Z,0.06
2023-01-21T04:04:17.920Z,0.08
2023-01-21T04:09:22.193Z,0.07
2023-01-21T04:14:25.384Z,0.04
2023-01-21T04:19:28.415Z,0.00
2023-01-21T04:24:33.776Z,-0.01
2023-01-21T04:29:37.595Z,-0.06
2023-01-21T04:34:40.371Z,-0.11
2023-01-21T04:39:43.323Z,-0.10
2023-01-21T04:44:46.371Z,-0.13
2023-01-21T04:49:49.259Z,-0.13
2023-01-21T04:54:52.349Z,-0.16
2023-01-21T04:59:55.333Z,-0.17
2023-01-21T05:04:58.391Z,-0.19
2023-01-21T05:10:01.375Z,-0.23
2023-01-21T05:15:05.249Z,-0.25
2023-01-21T05:20:09.093Z,-0.21
2023-01-21T05:25:12.062Z,-0.22
2023-01-21T05:30:15.285Z,-0.25
2023-01-21T05:35:21.353Z,-0.23
2023-01-21T05:40:24.369Z,-0.25
2023-01-21T05:45:27.317Z,-0.27
2023-01-21T05:50:30.138Z,-0.26
2023-01-21T05:55:33.239Z,-0.30
2023-01-21T06:00:36.373Z,-0.27
2023-01-21T06:05:41.640Z,-0.28
2023-01-21T06:10:45.274Z,-0.25
2023-01-21T06:15:48.230Z,-0.25
2023-01-21T06:20:51.301Z,-0.22
2023-01-21T06:25:54.377Z,-0.19
2023-01-21T06:30:57.811Z,-0.18
2023-01-21T06:36:02.217Z,-0.12
2023-01-21T06:41:05.372Z,-0.07
2023-01-21T06:46:08.145Z,-0.02
2023-01-21T06:51:11.184Z,0.04
2023-01-21T06:56:14.281Z,0.03
2023-01-21T07:01:17.121Z,0.06
2023-01-21T07:06:22.227Z,0.11
2023-01-21T07:11:25.210Z,0.17
2023-01-21T07:16:28.358Z,0.21
2023-01-21T07:21:31.509Z,0.24
2023-01-21T07:26:38.006Z,0.31
2023-01-21T07:31:40.997Z,0.32
2023-01-21T07:36:43.985Z,0.38
2023-01-21T07:41:47.009Z,0.43
2023-01-21T07:46:50.231Z,0.48
2023-01-21T07:51:57.641Z,0.54
2023-01-21T07:57:00.370Z,0.61
2023-01-21T08:02:03.516Z,0.65
2023-01-21T08:07:12.034Z,0.70
2023-01-21T08:12:16.474Z,0.75
2023-01-21T08:17:19.570Z,0.78
2023-01-21T08:22:23.271Z,0.78
2023-01-21T08:27:26.070Z,0.80
2023-01-21T08:32:31.868Z,0.87
2023-01-21T08:37:34.779Z,0.90
2023-01-21T08:42:37.760Z,0.95
2023-01-21T08:47:40.863Z,1.00
2023-01-21T08:52:50.013Z,1.03
2023-01-21T08:57:56.208Z,1.09
2023-01-21T09:02:59.904Z,1.16
2023-01-21T09:08:02.886Z,1.22
2023-01-21T09:13:08.615Z,1.25
2023-01-21T09:18:12.047Z,1.25
2023-01-21T09:23:24.596Z,1.25
2023-01-21T09:28:27.823Z,1.26
2023-01-21T09:33:33.588Z,1.30
2023-01-21T09:38:36.411Z,1.41
2023-01-21T09:44:02.349Z,1.49
2023-01-21T09:49:13.432Z,1.49
2023-01-21T09:54:27.319Z,1.46
2023-01-21T10:00:01.562Z,1.43
2023-01-21T10:05:32.971Z,1.47
2023-01-21T10:11:01.849Z,1.53
2023-01-21T10:16:25.617Z,1.59
2023-01-21T10:21:50.638Z,1.59
2023-01-21T10:26:54.614Z,1.64
2023-01-21T10:32:07.237Z,1.66
2023-01-21T10:37:25.200Z,1.64
2023-01-21T10:42:51.538Z,1.67
2023-01-21T10:48:15.785Z,1.73
2023-01-21T10:53:33.034Z,1.77
2023-01-21T10:58:53.959Z,1.73
2023-01-21T11:04:04.700Z,1.68
2023-01-21T11:09:12.977Z,1.64
2023-01-21T11:14:15.983Z,1.59
2023-01-21T11:19:30.485Z,1.55
2023-01-21T11:24:45.231Z,1.54
2023-01-21T11:29:50.236Z,1.49
2023-01-21T11:35:02.478Z,1.49
2023-01-21T11:40:25.286Z,1.50
2023-01-21T11:45:37.380Z,1.50
2023-01-21T11:50:40.914Z,1.57
2023-01-21T11:55:57.369Z,1.55
2023-01-21T12:01:04.369Z,1.58
2023-01-21T12:06:08.698Z,1.61
2023-01-21T12:11:19.063Z,1.72
2023-01-21T12:16:58.420Z,1.92
2023-01-21T12:22:39.530Z,2.09
2023-01-21T12:28:29.714Z,2.19
2023-01-21T12:33:32.767Z,2.12
2023-01-21T12:38:45.720Z,2.08
2023-01-21T12:43:54.594Z,2.05
2023-01-21T12:49:45.469Z,2.02
2023-01-21T12:55:07.165Z,1.98
2023-01-21T13:00:33.172Z,1.93
2023-01-21T13:05:50.523Z,1.88
2023-01-21T13:11:22.154Z,1.84
2023-01-21T13:16:26.565Z,1.87
2023-01-21T13:22:10.049Z,1.84
2023-01-21T13:27:41.178Z,1.87
2023-01-21T13:33:41.350Z,1.86
2023-01-21T13:39:01.685Z,1.83
2023-01-21T13:44:30.468Z,1.85
2023-01-21T13:49:45.271Z,1.84
2023-01-21T13:55:30.723Z,1.84
2023-01-21T14:01:00.901Z,1.85
2023-01-21T14:06:13.675Z,1.85
2023-01-21T14:11:27.903Z,1.83
2023-01-21T14:16:55.484Z,1.80
2023-01-21T14:22:16.685Z,1.76
2023-01-21T14:27:48.495Z,1.76
2023-01-21T14:33:02.376Z,1.80
2023-01-21T14:38:58.657Z,1.81
2023-01-21T14:44:01.703Z,1.80
2023-01-21T14:49:09.584Z,1.74
2023-01-21T14:54:16.069Z,1.71
2023-01-21T14:59:41.794Z,1.66
2023-01-21T15:05:22.064Z,1.51
2023-01-21T15:10:38.956Z,1.40
2023-01-21T15:16:20.272Z,1.36
2023-01-21T15:21:42.296Z,1.28
2023-01-21T15:27:16.083Z,1.23
2023-01-21T15:32:44.822Z,1.13
2023-01-21T15:38:11.590Z,1.11
2023-01-21T15:43:41.942Z,1.03
2023-01-21T15:49:10.833Z,1.01
2023-01-21T15:54:38.292Z,0.99
2023-01-21T16:00:15.608Z,0.94
2023-01-21T16:05:34.049Z,0.89
2023-01-21T16:11:01.594Z,0.90
2023-01-21T16:16:56.845Z,0.88
2023-01-21T16:22:07.716Z,0.88
2023-01-21T16:27:32.435Z,0.87
2023-01-21T16:32:37.234Z,0.85
2023-01-21T16:37:43.564Z,0.85
2023-01-21T16:42:47.231Z,0.82
2023-01-21T16:47:57.452Z,0.82
2023-01-21T16:53:07.868Z,0.81
2023-01-21T16:58:29.566Z,0.82
2023-01-21T17:03:33.408Z,0.80
2023-01-21T17:08:37.529Z,0.81
2023-01-21T17:13:48.469Z,0.80
2023-01-21T17:19:06.013Z,0.80
2023-01-21T17:24:29.515Z,0.79
2023-01-21T17:29:34.872Z,0.82
2023-01-21T17:34:40.069Z,0.80
2023-01-21T17:40:00.848Z,0.81
2023-01-21T17:45:05.282Z,0.79
2023-01-21T17:50:26.787Z,0.80
2023-01-21T17:55:37.940Z,0.81
2023-01-21T18:00:46.108Z,0.79
2023-01-21T18:05:49.211Z,0.82
2023-01-21T18:10:52.270Z,0.84
2023-01-21T18:15:55.130Z,0.86
2023-01-21T18:20:58.845Z,0.88
2023-01-21T18:26:03.539Z,0.88
2023-01-21T18:31:07.455Z,0.91
2023-01-21T18:36:14.908Z,0.93
2023-01-21T18:41:17.935Z,0.94
2023-01-21T18:46:20.831Z,0.97
2023-01-21T18:51:23.661Z,0.94
2023-01-21T18:56:26.545Z,0.95
2023-01-21T19:01:29.623Z,0.93
2023-01-21T19:06:32.788Z,0.94
2023-01-21T19:11:35.740Z,0.93
2023-01-21T19:16:41.160Z,0.96
2023-01-21T19:21:44.479Z,0.94
2023-01-21T19:26:48.653Z,0.95
2023-01-21T19:31:51.569Z,0.94
2023-01-21T19:36:54.635Z,0.95
2023-01-21T19:42:08.002Z,0.97
2023-01-21T19:47:27.849Z,0.97
2023-01-21T19:52:34.295Z,0.97
2023-01-21T19:57:38.367Z,0.95
2023-01-21T20:02:41.375Z,0.92
2023-01-21T20:07:46.697Z,0.92
2023-01-21T20:12:51.069Z,0.89
2023-01-21T20:17:55.418Z,0.85
2023-01-21T20:23:00.007Z,0.85
2023-01-21T20:28:14.960Z,0.84
2023-01-21T20:33:21.453Z,0.84
2023-01-21T20:38:31.988Z,0.82
2023-01-21T20:43:34.955Z,0.83
2023-01-21T20:48:43.031Z,0.82
2023-01-21T20:53:45.835Z,0.84
2023-01-21T20:58:49.285Z,0.87
2023-01-21T21:03:54.017Z,0.86
2023-01-21T21:08:58.128Z,0.91
2023-01-21T21:14:02.143Z,0.93
2023-01-21T21:19:05.087Z,0.96
2023-01-21T21:24:08.064Z,0.98
2023-01-21T21:29:14.333Z,1.00
2023-01-21T21:34:18.215Z,1.02
2023-01-21T21:39:22.206Z,1.05
2023-01-21T21:44:25.198Z,1.07
2023-01-21T21:49:29.752Z,1.09
2023-01-21T21:54:33.281Z,1.11
2023-01-21T21:59:36.377Z,1.14
2023-01-21T22:04:39.287Z,1.16
2023-01-21T22:09:42.232Z,1.18
2023-01-21T22:14:45.154Z,1.19
2023-01-21T22:19:47.985Z,1.20
2023-01-21T22:24:53.567Z,1.22
2023-01-21T22:29:59.207Z,1.25
2023-01-21T22:35:03.029Z,1.24
2023-01-21T22:40:07.072Z,1.25
2023-01-21T22:45:10.711Z,1.28
2023-01-21T22:50:14.462Z,1.28
2023-01-21T22:55:17.509Z,1.31
2023-01-21T23:00:38.900Z,1.31
2023-01-21T23:05:42.480Z,1.30
2023-01-21T23:10:47.014Z,1.33
2023-01-21T23:15:49.915Z,1.37
2023-01-21T23:20:53.215Z,1.37
2023-01-21T23:25:56.273Z,1.40
2023-01-21T23:31:08.796Z,1.43
2023-01-21T23:36:13.672Z,1.42
2023-01-21T23:41:19.746Z,1.43
2023-01-21T23:46:22.911Z,1.45
2023-01-21T23:51:25.987Z,1.47
2023-01-21T23:56:29.808Z,1.50
